Rechercher aéroport 
image banner adimage banner adimage banner ad
image banner ad

NV98 - Caas

Situé à Pahrump, United States

ICAO - NV98, IATA -

Données fournies par Airmate  

Information générale

Coordonnées: N36°9'1" W115°53'59"
Élévation : 2800 feet MSL.
 
Voir autres Aéroports à Nevada

Données opérationnelles

Special qualification required
Heure actuelle UTC:
Heure actuelle locale:
Météo à : KINS - Creech Afb ( 52 km )
METAR: KINS 152258Z AUTO 25014KT 10SM FEW160 FEW180 FEW210 41/M09 A2994 RMK AO2 PK WND 24028/02 SLP079 T04121089 $
TAF: TAF KINS 152104Z 1521/1703 10012KT 9999 BKN200 QNH2995INS BECMG 1521/1522 23012G25KT 9999 BKN200 510009 QNH2993INS BECMG 1602/1603 23012KT 9999 BKN200 QNH2993INS BECMG 1606/1607 VRB06KT 9999 FEW200 QNH2997INS BECMG 1617/1618 09012KT 9999 SCT180 QNH2995INS BECMG 1619/1620 24010G22KT 9999 BKN180 QNH2988INS TX42/1521Z TN26/1613Z
Voir NOTAMs / SUP AIP / TFR affectant cet aéroport [VIEW]
Fréquences de communication: [VIEW]

Pistes:

Identifiant RWYQFULongueur (ft)Largeur (ft)SurfaceLDA (ft)
08180040OTHER
26180040OTHER

Coordonnées de l'aéroport

Adresse: Pahrump United States

Vue satellite de NV98